sensor_id;sensor_type;location;lat;lon;timestamp;temperature;humidity
20829;DHT22;10575;50.124;8.582;2023-06-14T00:00:38;19.40;57.40
20829;DHT22;10575;50.124;8.582;2023-06-14T00:03:08;19.40;57.50
20829;DHT22;10575;50.124;8.582;2023-06-14T00:05:38;19.40;57.50
20829;DHT22;10575;50.124;8.582;2023-06-14T00:08:06;19.40;57.70
20829;DHT22;10575;50.124;8.582;2023-06-14T00:10:34;19.30;58.00
20829;DHT22;10575;50.124;8.582;2023-06-14T00:13:01;19.30;58.30
20829;DHT22;10575;50.124;8.582;2023-06-14T00:15:27;19.20;58.20
20829;DHT22;10575;50.124;8.582;2023-06-14T00:17:53;19.20;58.30
20829;DHT22;10575;50.124;8.582;2023-06-14T00:20:20;19.20;58.20
20829;DHT22;10575;50.124;8.582;2023-06-14T00:22:46;19.20;58.40
20829;DHT22;10575;50.124;8.582;2023-06-14T00:25:11;19.10;58.60
20829;DHT22;10575;50.124;8.582;2023-06-14T00:27:37;19.10;58.70
20829;DHT22;10575;50.124;8.582;2023-06-14T00:30:03;19.10;58.80
20829;DHT22;10575;50.124;8.582;2023-06-14T00:32:28;19.00;58.90
20829;DHT22;10575;50.124;8.582;2023-06-14T00:34:54;19.00;59.00
20829;DHT22;10575;50.124;8.582;2023-06-14T00:37:19;19.00;59.00
20829;DHT22;10575;50.124;8.582;2023-06-14T00:39:45;18.90;59.10
20829;DHT22;10575;50.124;8.582;2023-06-14T00:42:10;18.90;59.40
20829;DHT22;10575;50.124;8.582;2023-06-14T00:44:36;18.90;59.60
20829;DHT22;10575;50.124;8.582;2023-06-14T00:47:01;18.90;59.90
20829;DHT22;10575;50.124;8.582;2023-06-14T00:49:29;18.90;59.50
20829;DHT22;10575;50.124;8.582;2023-06-14T00:51:55;18.90;59.10
20829;DHT22;10575;50.124;8.582;2023-06-14T00:54:20;18.90;59.40
20829;DHT22;10575;50.124;8.582;2023-06-14T00:56:46;18.90;59.60
20829;DHT22;10575;50.124;8.582;2023-06-14T00:59:12;18.80;59.80
20829;DHT22;10575;50.124;8.582;2023-06-14T01:01:37;18.80;59.60
20829;DHT22;10575;50.124;8.582;2023-06-14T01:04:04;18.80;60.20
20829;DHT22;10575;50.124;8.582;2023-06-14T01:09:21;18.80;59.30
20829;DHT22;10575;50.124;8.582;2023-06-14T01:12:17;18.80;59.30
20829;DHT22;10575;50.124;8.582;2023-06-14T01:14:48;18.90;59.20
20829;DHT22;10575;50.124;8.582;2023-06-14T01:17:14;18.80;59.00
20829;DHT22;10575;50.124;8.582;2023-06-14T01:19:45;18.80;59.20
20829;DHT22;10575;50.124;8.582;2023-06-14T01:22:11;18.80;59.60
20829;DHT22;10575;50.124;8.582;2023-06-14T01:24:36;18.80;59.40
20829;DHT22;10575;50.124;8.582;2023-06-14T01:27:05;18.80;59.20
20829;DHT22;10575;50.124;8.582;2023-06-14T01:29:31;18.80;59.70
20829;DHT22;10575;50.124;8.582;2023-06-14T01:32:01;18.80;58.70
20829;DHT22;10575;50.124;8.582;2023-06-14T01:34:27;18.80;58.90
20829;DHT22;10575;50.124;8.582;2023-06-14T01:36:53;18.80;58.80
20829;DHT22;10575;50.124;8.582;2023-06-14T01:39:23;18.80;58.70
20829;DHT22;10575;50.124;8.582;2023-06-14T01:41:49;18.80;58.60
20829;DHT22;10575;50.124;8.582;2023-06-14T01:44:16;18.80;58.90
20829;DHT22;10575;50.124;8.582;2023-06-14T01:46:43;18.80;58.40
20829;DHT22;10575;50.124;8.582;2023-06-14T01:49:09;18.80;58.60
20829;DHT22;10575;50.124;8.582;2023-06-14T01:51:34;18.80;58.80
20829;DHT22;10575;50.124;8.582;2023-06-14T01:54:00;18.80;58.90
20829;DHT22;10575;50.124;8.582;2023-06-14T01:56:26;18.80;59.10
20829;DHT22;10575;50.124;8.582;2023-06-14T01:58:52;18.80;58.90
20829;DHT22;10575;50.124;8.582;2023-06-14T02:01:19;18.80;58.50
20829;DHT22;10575;50.124;8.582;2023-06-14T02:03:46;18.70;59.20
20829;DHT22;10575;50.124;8.582;2023-06-14T02:06:12;18.60;59.20
20829;DHT22;10575;50.124;8.582;2023-06-14T02:08:39;18.60;59.80
20829;DHT22;10575;50.124;8.582;2023-06-14T02:11:05;18.60;59.80
20829;DHT22;10575;50.124;8.582;2023-06-14T02:13:30;18.60;59.90
20829;DHT22;10575;50.124;8.582;2023-06-14T02:15:56;18.60;59.50
20829;DHT22;10575;50.124;8.582;2023-06-14T02:18:23;18.60;59.80
20829;DHT22;10575;50.124;8.582;2023-06-14T02:20:48;18.60;59.80
20829;DHT22;10575;50.124;8.582;2023-06-14T02:23:14;18.60;60.80
20829;DHT22;10575;50.124;8.582;2023-06-14T02:25:40;18.70;60.70
20829;DHT22;10575;50.124;8.582;2023-06-14T02:28:05;18.70;60.60
20829;DHT22;10575;50.124;8.582;2023-06-14T02:30:31;18.60;61.90
20829;DHT22;10575;50.124;8.582;2023-06-14T02:32:57;18.70;61.20
20829;DHT22;10575;50.124;8.582;2023-06-14T02:35:24;18.60;62.10
20829;DHT22;10575;50.124;8.582;2023-06-14T02:37:52;18.50;62.70
20829;DHT22;10575;50.124;8.582;2023-06-14T02:40:18;18.50;62.10
20829;DHT22;10575;50.124;8.582;2023-06-14T02:42:44;18.40;62.30
20829;DHT22;10575;50.124;8.582;2023-06-14T02:45:10;18.30;62.20
20829;DHT22;10575;50.124;8.582;2023-06-14T02:47:35;18.20;62.80
20829;DHT22;10575;50.124;8.582;2023-06-14T02:50:01;18.20;63.70
20829;DHT22;10575;50.124;8.582;2023-06-14T02:52:28;18.10;63.80
20829;DHT22;10575;50.124;8.582;2023-06-14T02:54:53;18.10;64.30
20829;DHT22;10575;50.124;8.582;2023-06-14T02:57:20;18.00;64.20
20829;DHT22;10575;50.124;8.582;2023-06-14T02:59:45;17.90;64.20
20829;DHT22;10575;50.124;8.582;2023-06-14T03:02:11;17.90;64.50
20829;DHT22;10575;50.124;8.582;2023-06-14T03:04:36;17.90;64.30
20829;DHT22;10575;50.124;8.582;2023-06-14T03:07:05;17.90;64.50
20829;DHT22;10575;50.124;8.582;2023-06-14T03:09:38;17.90;64.70
20829;DHT22;10575;50.124;8.582;2023-06-14T03:12:05;17.80;65.40
20829;DHT22;10575;50.124;8.582;2023-06-14T03:14:32;17.80;66.20
20829;DHT22;10575;50.124;8.582;2023-06-14T03:16:58;17.80;66.50
20829;DHT22;10575;50.124;8.582;2023-06-14T03:19:24;17.80;67.30
20829;DHT22;10575;50.124;8.582;2023-06-14T03:21:51;17.80;66.50
20829;DHT22;10575;50.124;8.582;2023-06-14T03:24:17;17.80;66.70
20829;DHT22;10575;50.124;8.582;2023-06-14T03:26:42;17.70;66.00
20829;DHT22;10575;50.124;8.582;2023-06-14T03:29:08;17.70;65.60
20829;DHT22;10575;50.124;8.582;2023-06-14T03:31:34;17.70;66.50
20829;DHT22;10575;50.124;8.582;2023-06-14T03:34:01;17.70;65.60
20829;DHT22;10575;50.124;8.582;2023-06-14T03:36:27;17.80;66.00
20829;DHT22;10575;50.124;8.582;2023-06-14T03:38:53;17.80;67.50
20829;DHT22;10575;50.124;8.582;2023-06-14T03:41:19;17.70;66.80
20829;DHT22;10575;50.124;8.582;2023-06-14T03:43:45;17.80;67.70
20829;DHT22;10575;50.124;8.582;2023-06-14T03:46:10;17.60;67.10
20829;DHT22;10575;50.124;8.582;2023-06-14T03:48:36;17.70;68.10
20829;DHT22;10575;50.124;8.582;2023-06-14T03:51:01;17.80;67.60
20829;DHT22;10575;50.124;8.582;2023-06-14T03:53:27;18.00;66.60
20829;DHT22;10575;50.124;8.582;2023-06-14T03:55:54;17.90;67.20
20829;DHT22;10575;50.124;8.582;2023-06-14T03:58:20;17.90;68.10
20829;DHT22;10575;50.124;8.582;2023-06-14T04:00:46;18.00;66.90
20829;DHT22;10575;50.124;8.582;2023-06-14T04:03:12;18.10;67.50
20829;DHT22;10575;50.124;8.582;2023-06-14T04:05:39;18.00;68.40
20829;DHT22;10575;50.124;8.582;2023-06-14T04:08:08;18.00;67.20
20829;DHT22;10575;50.124;8.582;2023-06-14T04:10:34;17.90;68.00
20829;DHT22;10575;50.124;8.582;2023-06-14T04:13:00;18.00;68.50
20829;DHT22;10575;50.124;8.582;2023-06-14T04:15:25;18.00;68.20
20829;DHT22;10575;50.124;8.582;2023-06-14T04:17:53;18.00;68.70
20829;DHT22;10575;50.124;8.582;2023-06-14T04:20:22;18.00;68.20
20829;DHT22;10575;50.124;8.582;2023-06-14T04:22:49;17.90;68.10
20829;DHT22;10575;50.124;8.582;2023-06-14T04:25:15;17.80;68.80
20829;DHT22;10575;50.124;8.582;2023-06-14T04:27:40;17.70;68.90
20829;DHT22;10575;50.124;8.582;2023-06-14T04:30:07;17.70;69.30
20829;DHT22;10575;50.124;8.582;2023-06-14T04:32:33;17.70;69.90
20829;DHT22;10575;50.124;8.582;2023-06-14T04:35:08;17.70;70.20
20829;DHT22;10575;50.124;8.582;2023-06-14T04:37:34;17.60;69.90
20829;DHT22;10575;50.124;8.582;2023-06-14T04:40:00;17.70;70.20
20829;DHT22;10575;50.124;8.582;2023-06-14T04:42:26;17.60;70.90
20829;DHT22;10575;50.124;8.582;2023-06-14T04:44:56;17.70;71.30
20829;DHT22;10575;50.124;8.582;2023-06-14T04:47:22;17.70;70.80
20829;DHT22;10575;50.124;8.582;2023-06-14T04:49:50;17.90;71.00
20829;DHT22;10575;50.124;8.582;2023-06-14T04:52:17;18.00;70.70
20829;DHT22;10575;50.124;8.582;2023-06-14T04:54:46;17.90;70.10
20829;DHT22;10575;50.124;8.582;2023-06-14T04:57:11;18.00;70.50
20829;DHT22;10575;50.124;8.582;2023-06-14T04:59:39;18.00;70.00
20829;DHT22;10575;50.124;8.582;2023-06-14T05:02:04;18.10;70.00
20829;DHT22;10575;50.124;8.582;2023-06-14T05:04:30;18.20;70.40
20829;DHT22;10575;50.124;8.582;2023-06-14T05:06:56;18.30;69.60
20829;DHT22;10575;50.124;8.582;2023-06-14T05:09:21;18.30;70.00
20829;DHT22;10575;50.124;8.582;2023-06-14T05:11:47;18.40;69.60
20829;DHT22;10575;50.124;8.582;2023-06-14T05:14:14;18.40;68.00
20829;DHT22;10575;50.124;8.582;2023-06-14T05:16:40;18.40;68.70
20829;DHT22;10575;50.124;8.582;2023-06-14T05:19:06;18.40;68.10
20829;DHT22;10575;50.124;8.582;2023-06-14T05:21:32;18.50;68.50
20829;DHT22;10575;50.124;8.582;2023-06-14T05:24:00;18.60;68.70
20829;DHT22;10575;50.124;8.582;2023-06-14T05:26:26;18.60;67.60
20829;DHT22;10575;50.124;8.582;2023-06-14T05:28:58;18.70;69.20
20829;DHT22;10575;50.124;8.582;2023-06-14T05:31:25;18.70;67.80
20829;DHT22;10575;50.124;8.582;2023-06-14T05:33:51;18.90;68.00
20829;DHT22;10575;50.124;8.582;2023-06-14T05:36:17;18.90;67.60
20829;DHT22;10575;50.124;8.582;2023-06-14T05:38:42;19.00;67.50
20829;DHT22;10575;50.124;8.582;2023-06-14T05:41:08;19.20;67.60
20829;DHT22;10575;50.124;8.582;2023-06-14T05:43:33;19.30;67.20
20829;DHT22;10575;50.124;8.582;2023-06-14T05:45:58;19.40;66.50
20829;DHT22;10575;50.124;8.582;2023-06-14T05:48:24;19.60;66.50
20829;DHT22;10575;50.124;8.582;2023-06-14T05:50:49;20.10;64.50
20829;DHT22;10575;50.124;8.582;2023-06-14T05:53:15;21.30;61.50
20829;DHT22;10575;50.124;8.582;2023-06-14T05:55:41;22.30;56.50
20829;DHT22;10575;50.124;8.582;2023-06-14T05:58:06;22.80;55.00
20829;DHT22;10575;50.124;8.582;2023-06-14T06:00:32;23.10;54.00
20829;DHT22;10575;50.124;8.582;2023-06-14T06:02:57;23.00;54.20
20829;DHT22;10575;50.124;8.582;2023-06-14T06:05:23;22.90;54.10
20829;DHT22;10575;50.124;8.582;2023-06-14T06:07:49;23.20;54.00
20829;DHT22;10575;50.124;8.582;2023-06-14T06:10:15;23.80;53.00
20829;DHT22;10575;50.124;8.582;2023-06-14T06:12:41;24.60;52.60
20829;DHT22;10575;50.124;8.582;2023-06-14T06:15:07;25.30;50.20
20829;DHT22;10575;50.124;8.582;2023-06-14T06:17:33;26.30;47.80
20829;DHT22;10575;50.124;8.582;2023-06-14T06:19:59;27.00;45.60
20829;DHT22;10575;50.124;8.582;2023-06-14T06:22:25;27.90;44.40
20829;DHT22;10575;50.124;8.582;2023-06-14T06:24:50;29.20;42.30
20829;DHT22;10575;50.124;8.582;2023-06-14T06:27:16;30.00;40.80
20829;DHT22;10575;50.124;8.582;2023-06-14T06:29:44;29.40;40.90
20829;DHT22;10575;50.124;8.582;2023-06-14T06:32:10;30.40;39.60
20829;DHT22;10575;50.124;8.582;2023-06-14T06:34:35;29.80;39.30
20829;DHT22;10575;50.124;8.582;2023-06-14T06:37:02;28.80;41.90
20829;DHT22;10575;50.124;8.582;2023-06-14T06:39:27;28.50;42.90
20829;DHT22;10575;50.124;8.582;2023-06-14T06:41:53;28.80;42.60
20829;DHT22;10575;50.124;8.582;2023-06-14T06:44:18;28.90;42.90
20829;DHT22;10575;50.124;8.582;2023-06-14T06:46:44;29.70;42.20
20829;DHT22;10575;50.124;8.582;2023-06-14T06:49:10;31.20;39.90
20829;DHT22;10575;50.124;8.582;2023-06-14T06:51:37;31.70;38.00
20829;DHT22;10575;50.124;8.582;2023-06-14T06:54:03;33.60;36.40
20829;DHT22;10575;50.124;8.582;2023-06-14T06:56:28;36.80;32.50
20829;DHT22;10575;50.124;8.582;2023-06-14T06:58:54;36.80;30.30
20829;DHT22;10575;50.124;8.582;2023-06-14T07:01:19;37.00;31.10
20829;DHT22;10575;50.124;8.582;2023-06-14T07:03:45;36.60;30.70
20829;DHT22;10575;50.124;8.582;2023-06-14T07:06:11;36.80;29.80
20829;DHT22;10575;50.124;8.582;2023-06-14T07:08:37;37.40;29.70
20829;DHT22;10575;50.124;8.582;2023-06-14T07:11:04;39.60;28.40
20829;DHT22;10575;50.124;8.582;2023-06-14T07:13:30;38.50;28.60
20829;DHT22;10575;50.124;8.582;2023-06-14T07:15:58;38.70;28.30
20829;DHT22;10575;50.124;8.582;2023-06-14T07:18:24;39.80;27.20
20829;DHT22;10575;50.124;8.582;2023-06-14T07:20:50;40.90;26.90
20829;DHT22;10575;50.124;8.582;2023-06-14T07:23:15;42.80;25.30
20829;DHT22;10575;50.124;8.582;2023-06-14T07:25:41;42.90;25.30
20829;DHT22;10575;50.124;8.582;2023-06-14T07:28:06;41.00;25.90
20829;DHT22;10575;50.124;8.582;2023-06-14T07:30:32;39.70;26.70
20829;DHT22;10575;50.124;8.582;2023-06-14T07:32:58;41.30;26.20
20829;DHT22;10575;50.124;8.582;2023-06-14T07:35:24;42.20;25.30
20829;DHT22;10575;50.124;8.582;2023-06-14T07:37:50;43.00;24.50
20829;DHT22;10575;50.124;8.582;2023-06-14T07:40:15;42.60;24.60
20829;DHT22;10575;50.124;8.582;2023-06-14T07:42:42;42.30;25.50
20829;DHT22;10575;50.124;8.582;2023-06-14T07:45:07;42.10;25.00
20829;DHT22;10575;50.124;8.582;2023-06-14T07:47:34;40.60;26.60
20829;DHT22;10575;50.124;8.582;2023-06-14T07:49:59;40.30;26.70
20829;DHT22;10575;50.124;8.582;2023-06-14T07:52:25;39.40;27.50
20829;DHT22;10575;50.124;8.582;2023-06-14T07:54:50;38.90;27.50
20829;DHT22;10575;50.124;8.582;2023-06-14T07:57:16;38.80;28.60
20829;DHT22;10575;50.124;8.582;2023-06-14T07:59:42;39.60;27.80
20829;DHT22;10575;50.124;8.582;2023-06-14T08:02:07;39.20;27.20
20829;DHT22;10575;50.124;8.582;2023-06-14T08:04:33;39.10;27.30
20829;DHT22;10575;50.124;8.582;2023-06-14T08:06:59;39.40;27.60
20829;DHT22;10575;50.124;8.582;2023-06-14T08:09:25;38.90;27.70
20829;DHT22;10575;50.124;8.582;2023-06-14T08:11:51;40.10;26.80
20829;DHT22;10575;50.124;8.582;2023-06-14T08:14:16;42.80;25.00
20829;DHT22;10575;50.124;8.582;2023-06-14T08:16:42;43.90;24.30
20829;DHT22;10575;50.124;8.582;2023-06-14T08:19:07;44.60;23.60
20829;DHT22;10575;50.124;8.582;2023-06-14T08:21:33;43.20;24.00
20829;DHT22;10575;50.124;8.582;2023-06-14T08:23:59;41.80;25.10
20829;DHT22;10575;50.124;8.582;2023-06-14T08:26:25;41.20;26.10
20829;DHT22;10575;50.124;8.582;2023-06-14T08:28:54;40.70;26.10
20829;DHT22;10575;50.124;8.582;2023-06-14T08:31:20;41.90;25.80
20829;DHT22;10575;50.124;8.582;2023-06-14T08:33:46;42.50;24.60
20829;DHT22;10575;50.124;8.582;2023-06-14T08:36:14;41.50;25.00
20829;DHT22;10575;50.124;8.582;2023-06-14T08:38:40;42.30;24.40
20829;DHT22;10575;50.124;8.582;2023-06-14T08:41:06;43.00;24.50
20829;DHT22;10575;50.124;8.582;2023-06-14T08:43:32;42.90;24.00
20829;DHT22;10575;50.124;8.582;2023-06-14T08:46:00;42.80;24.50
20829;DHT22;10575;50.124;8.582;2023-06-14T08:48:27;41.20;24.20
20829;DHT22;10575;50.124;8.582;2023-06-14T08:50:55;41.40;24.20
20829;DHT22;10575;50.124;8.582;2023-06-14T08:53:28;42.60;24.10
20829;DHT22;10575;50.124;8.582;2023-06-14T08:56:00;41.90;23.90
20829;DHT22;10575;50.124;8.582;2023-06-14T08:58:30;40.20;25.40
20829;DHT22;10575;50.124;8.582;2023-06-14T09:00:57;39.50;25.60
20829;DHT22;10575;50.124;8.582;2023-06-14T09:03:24;39.20;26.10
20829;DHT22;10575;50.124;8.582;2023-06-14T09:05:58;38.70;27.20
20829;DHT22;10575;50.124;8.582;2023-06-14T09:08:27;39.20;26.70
20829;DHT22;10575;50.124;8.582;2023-06-14T09:10:56;39.60;25.50
20829;DHT22;10575;50.124;8.582;2023-06-14T09:13:21;40.70;25.30
20829;DHT22;10575;50.124;8.582;2023-06-14T09:15:47;43.70;23.80
20829;DHT22;10575;50.124;8.582;2023-06-14T09:18:12;42.40;23.80
20829;DHT22;10575;50.124;8.582;2023-06-14T09:20:38;40.90;25.10
20829;DHT22;10575;50.124;8.582;2023-06-14T09:23:04;38.90;26.60
20829;DHT22;10575;50.124;8.582;2023-06-14T09:25:30;37.00;28.20
20829;DHT22;10575;50.124;8.582;2023-06-14T09:27:56;35.50;29.40
20829;DHT22;10575;50.124;8.582;2023-06-14T09:30:21;33.20;32.30
20829;DHT22;10575;50.124;8.582;2023-06-14T09:32:47;30.70;35.50
20829;DHT22;10575;50.124;8.582;2023-06-14T09:35:12;29.30;38.50
20829;DHT22;10575;50.124;8.582;2023-06-14T09:37:42;28.80;39.70
20829;DHT22;10575;50.124;8.582;2023-06-14T09:40:08;28.80;40.70
20829;DHT22;10575;50.124;8.582;2023-06-14T09:42:33;29.00;38.90
20829;DHT22;10575;50.124;8.582;2023-06-14T09:45:02;29.00;39.90
20829;DHT22;10575;50.124;8.582;2023-06-14T09:47:27;28.50;41.60
20829;DHT22;10575;50.124;8.582;2023-06-14T09:49:55;28.30;41.10
20829;DHT22;10575;50.124;8.582;2023-06-14T09:52:21;28.10;40.90
20829;DHT22;10575;50.124;8.582;2023-06-14T09:54:48;28.20;40.70
20829;DHT22;10575;50.124;8.582;2023-06-14T09:57:16;28.10;39.80
20829;DHT22;10575;50.124;8.582;2023-06-14T09:59:46;27.80;40.20
20829;DHT22;10575;50.124;8.582;2023-06-14T10:02:26;27.30;41.50
20829;DHT22;10575;50.124;8.582;2023-06-14T10:05:03;26.90;42.70
20829;DHT22;10575;50.124;8.582;2023-06-14T10:07:33;27.20;41.90
20829;DHT22;10575;50.124;8.582;2023-06-14T10:10:00;27.30;42.60
20829;DHT22;10575;50.124;8.582;2023-06-14T10:12:26;27.40;43.40
20829;DHT22;10575;50.124;8.582;2023-06-14T10:14:53;27.50;42.00
20829;DHT22;10575;50.124;8.582;2023-06-14T10:17:47;27.40;42.30
20829;DHT22;10575;50.124;8.582;2023-06-14T10:20:37;27.00;43.30
20829;DHT22;10575;50.124;8.582;2023-06-14T10:23:13;26.60;43.60
20829;DHT22;10575;50.124;8.582;2023-06-14T10:25:42;26.40;44.60
20829;DHT22;10575;50.124;8.582;2023-06-14T10:28:19;26.40;44.00
20829;DHT22;10575;50.124;8.582;2023-06-14T10:31:06;26.40;44.90
20829;DHT22;10575;50.124;8.582;2023-06-14T10:33:33;26.60;42.90
20829;DHT22;10575;50.124;8.582;2023-06-14T10:38:43;26.30;43.70
20829;DHT22;10575;50.124;8.582;2023-06-14T10:41:09;26.00;44.20
20829;DHT22;10575;50.124;8.582;2023-06-14T10:43:35;25.90;45.10
20829;DHT22;10575;50.124;8.582;2023-06-14T10:46:17;26.20;45.60
20829;DHT22;10575;50.124;8.582;2023-06-14T10:48:44;26.00;46.50
20829;DHT22;10575;50.124;8.582;2023-06-14T10:51:20;26.00;44.10
20829;DHT22;10575;50.124;8.582;2023-06-14T10:53:47;25.80;45.20
20829;DHT22;10575;50.124;8.582;2023-06-14T10:56:26;26.40;45.60
20829;DHT22;10575;50.124;8.582;2023-06-14T10:58:52;26.60;43.40
20829;DHT22;10575;50.124;8.582;2023-06-14T11:01:33;26.10;44.30
20829;DHT22;10575;50.124;8.582;2023-06-14T11:04:07;26.30;44.90
20829;DHT22;10575;50.124;8.582;2023-06-14T11:06:50;26.80;45.10
20829;DHT22;10575;50.124;8.582;2023-06-14T11:12:06;27.30;46.20
20829;DHT22;10575;50.124;8.582;2023-06-14T11:14:35;27.80;45.20
20829;DHT22;10575;50.124;8.582;2023-06-14T11:17:01;27.70;43.00
20829;DHT22;10575;50.124;8.582;2023-06-14T11:19:26;27.50;43.60
20829;DHT22;10575;50.124;8.582;2023-06-14T11:21:54;27.20;43.20
20829;DHT22;10575;50.124;8.582;2023-06-14T11:24:20;27.00;42.30
20829;DHT22;10575;50.124;8.582;2023-06-14T11:26:47;26.90;43.30
20829;DHT22;10575;50.124;8.582;2023-06-14T11:29:14;26.90;43.40
20829;DHT22;10575;50.124;8.582;2023-06-14T11:31:43;26.50;46.10
20829;DHT22;10575;50.124;8.582;2023-06-14T11:34:11;26.70;45.60
20829;DHT22;10575;50.124;8.582;2023-06-14T11:36:38;26.70;43.60
20829;DHT22;10575;50.124;8.582;2023-06-14T11:39:06;27.00;44.80
20829;DHT22;10575;50.124;8.582;2023-06-14T11:41:44;26.90;44.00
20829;DHT22;10575;50.124;8.582;2023-06-14T11:44:11;26.70;44.30
20829;DHT22;10575;50.124;8.582;2023-06-14T11:46:37;26.60;43.60
20829;DHT22;10575;50.124;8.582;2023-06-14T11:49:03;26.50;42.50
20829;DHT22;10575;50.124;8.582;2023-06-14T11:51:31;26.60;42.90
20829;DHT22;10575;50.124;8.582;2023-06-14T11:53:57;27.10;43.50
20829;DHT22;10575;50.124;8.582;2023-06-14T11:56:23;27.40;42.40
20829;DHT22;10575;50.124;8.582;2023-06-14T11:58:50;27.20;42.90
20829;DHT22;10575;50.124;8.582;2023-06-14T12:01:17;27.10;42.30
20829;DHT22;10575;50.124;8.582;2023-06-14T12:03:53;27.40;43.10
20829;DHT22;10575;50.124;8.582;2023-06-14T12:06:30;27.50;40.90
20829;DHT22;10575;50.124;8.582;2023-06-14T12:08:58;27.60;41.30
20829;DHT22;10575;50.124;8.582;2023-06-14T12:11:31;27.50;42.00
20829;DHT22;10575;50.124;8.582;2023-06-14T12:13:57;27.10;42.10
20829;DHT22;10575;50.124;8.582;2023-06-14T12:16:30;26.70;42.20
20829;DHT22;10575;50.124;8.582;2023-06-14T12:19:00;26.50;43.40
20829;DHT22;10575;50.124;8.582;2023-06-14T12:21:27;26.50;42.30
20829;DHT22;10575;50.124;8.582;2023-06-14T12:23:54;26.40;43.00
20829;DHT22;10575;50.124;8.582;2023-06-14T12:26:20;26.60;44.10
20829;DHT22;10575;50.124;8.582;2023-06-14T12:28:46;26.80;42.50
20829;DHT22;10575;50.124;8.582;2023-06-14T12:31:14;27.10;42.00
20829;DHT22;10575;50.124;8.582;2023-06-14T12:33:40;27.10;42.20
20829;DHT22;10575;50.124;8.582;2023-06-14T12:36:08;27.10;41.10
20829;DHT22;10575;50.124;8.582;2023-06-14T12:38:34;26.50;41.30
20829;DHT22;10575;50.124;8.582;2023-06-14T12:41:00;26.20;43.20
20829;DHT22;10575;50.124;8.582;2023-06-14T12:43:26;26.30;42.40
20829;DHT22;10575;50.124;8.582;2023-06-14T12:45:52;26.50;42.10
20829;DHT22;10575;50.124;8.582;2023-06-14T12:48:19;26.50;41.00
20829;DHT22;10575;50.124;8.582;2023-06-14T12:50:44;27.20;41.40
20829;DHT22;10575;50.124;8.582;2023-06-14T12:53:10;27.30;40.60
20829;DHT22;10575;50.124;8.582;2023-06-14T12:55:36;27.00;41.00
20829;DHT22;10575;50.124;8.582;2023-06-14T12:58:01;26.80;41.90
20829;DHT22;10575;50.124;8.582;2023-06-14T13:00:27;26.60;41.50
20829;DHT22;10575;50.124;8.582;2023-06-14T13:02:55;26.10;42.20
20829;DHT22;10575;50.124;8.582;2023-06-14T13:05:20;26.40;42.50
20829;DHT22;10575;50.124;8.582;2023-06-14T13:07:46;26.50;41.70
20829;DHT22;10575;50.124;8.582;2023-06-14T13:10:12;26.50;41.90
20829;DHT22;10575;50.124;8.582;2023-06-14T13:12:37;26.60;42.00
20829;DHT22;10575;50.124;8.582;2023-06-14T13:15:03;26.50;42.90
20829;DHT22;10575;50.124;8.582;2023-06-14T13:17:28;26.70;41.00
20829;DHT22;10575;50.124;8.582;2023-06-14T13:19:54;27.10;43.00
20829;DHT22;10575;50.124;8.582;2023-06-14T13:22:19;27.10;41.40
20829;DHT22;10575;50.124;8.582;2023-06-14T13:24:45;27.00;40.70
20829;DHT22;10575;50.124;8.582;2023-06-14T13:27:11;26.70;41.40
20829;DHT22;10575;50.124;8.582;2023-06-14T13:29:37;26.40;41.80
20829;DHT22;10575;50.124;8.582;2023-06-14T13:32:03;26.20;41.80
20829;DHT22;10575;50.124;8.582;2023-06-14T13:34:29;26.00;42.60
20829;DHT22;10575;50.124;8.582;2023-06-14T13:36:54;25.80;43.00
20829;DHT22;10575;50.124;8.582;2023-06-14T13:39:20;26.00;43.70
20829;DHT22;10575;50.124;8.582;2023-06-14T13:41:46;26.30;45.20
20829;DHT22;10575;50.124;8.582;2023-06-14T13:44:11;26.80;42.60
20829;DHT22;10575;50.124;8.582;2023-06-14T13:46:39;26.90;43.90
20829;DHT22;10575;50.124;8.582;2023-06-14T13:49:05;27.10;41.50
20829;DHT22;10575;50.124;8.582;2023-06-14T13:51:31;27.30;40.70
20829;DHT22;10575;50.124;8.582;2023-06-14T13:53:58;27.50;39.50
20829;DHT22;10575;50.124;8.582;2023-06-14T13:56:24;27.40;39.50
20829;DHT22;10575;50.124;8.582;2023-06-14T13:58:50;27.20;40.10
20829;DHT22;10575;50.124;8.582;2023-06-14T14:01:16;27.10;40.00
20829;DHT22;10575;50.124;8.582;2023-06-14T14:03:43;27.20;41.70
20829;DHT22;10575;50.124;8.582;2023-06-14T14:06:10;27.00;42.90
20829;DHT22;10575;50.124;8.582;2023-06-14T14:08:36;26.50;43.20
20829;DHT22;10575;50.124;8.582;2023-06-14T14:11:01;26.30;44.30
20829;DHT22;10575;50.124;8.582;2023-06-14T14:13:27;26.00;43.60
20829;DHT22;10575;50.124;8.582;2023-06-14T14:15:53;25.80;44.70
20829;DHT22;10575;50.124;8.582;2023-06-14T14:18:18;25.80;45.90
20829;DHT22;10575;50.124;8.582;2023-06-14T14:20:46;25.80;45.20
20829;DHT22;10575;50.124;8.582;2023-06-14T14:23:12;25.60;44.10
20829;DHT22;10575;50.124;8.582;2023-06-14T14:25:37;25.50;44.70
20829;DHT22;10575;50.124;8.582;2023-06-14T14:28:03;25.20;43.90
20829;DHT22;10575;50.124;8.582;2023-06-14T14:30:28;25.50;45.30
20829;DHT22;10575;50.124;8.582;2023-06-14T14:32:54;25.70;44.90
20829;DHT22;10575;50.124;8.582;2023-06-14T14:35:20;26.00;45.50
20829;DHT22;10575;50.124;8.582;2023-06-14T14:37:45;26.30;45.30
20829;DHT22;10575;50.124;8.582;2023-06-14T14:40:11;26.90;42.90
20829;DHT22;10575;50.124;8.582;2023-06-14T14:42:37;27.00;42.40
20829;DHT22;10575;50.124;8.582;2023-06-14T14:45:03;26.90;42.90
20829;DHT22;10575;50.124;8.582;2023-06-14T14:47:28;26.80;42.60
20829;DHT22;10575;50.124;8.582;2023-06-14T14:49:54;26.70;42.60
20829;DHT22;10575;50.124;8.582;2023-06-14T14:52:19;26.30;43.30
20829;DHT22;10575;50.124;8.582;2023-06-14T14:54:45;26.30;43.60
20829;DHT22;10575;50.124;8.582;2023-06-14T14:57:10;26.20;47.00
20829;DHT22;10575;50.124;8.582;2023-06-14T14:59:36;26.20;44.50
20829;DHT22;10575;50.124;8.582;2023-06-14T15:02:01;26.10;44.30
20829;DHT22;10575;50.124;8.582;2023-06-14T15:04:27;26.30;45.00
20829;DHT22;10575;50.124;8.582;2023-06-14T15:06:52;26.20;45.00
20829;DHT22;10575;50.124;8.582;2023-06-14T15:09:18;26.40;44.70
20829;DHT22;10575;50.124;8.582;2023-06-14T15:11:43;26.50;44.50
20829;DHT22;10575;50.124;8.582;2023-06-14T15:14:10;26.60;43.90
20829;DHT22;10575;50.124;8.582;2023-06-14T15:16:35;26.80;44.30
20829;DHT22;10575;50.124;8.582;2023-06-14T15:19:01;26.80;44.80
20829;DHT22;10575;50.124;8.582;2023-06-14T15:21:27;26.80;44.50
20829;DHT22;10575;50.124;8.582;2023-06-14T15:23:52;27.00;43.70
20829;DHT22;10575;50.124;8.582;2023-06-14T15:26:19;26.60;44.50
20829;DHT22;10575;50.124;8.582;2023-06-14T15:28:45;26.50;44.70
20829;DHT22;10575;50.124;8.582;2023-06-14T15:31:10;26.00;43.80
20829;DHT22;10575;50.124;8.582;2023-06-14T15:33:36;25.80;44.30
20829;DHT22;10575;50.124;8.582;2023-06-14T15:36:01;25.50;44.00